RUM3149 SBPA-SBSP
Flight info
| Callsign | RUM3149 |
|---|---|
| Flight time | 1h 16m |
| Altitude | 37000 |
| Route | KORGU2A ANLER UM540 ANISE OGTAL2A |
| Aircraft | A319/M-SDE3FGHIRWY/LB1 |
Departure
| Time | 2026-04-30 13:39 |
|---|---|
| Airport | Porto Alegre-Salgado Filho International Airport (SBPA) |
Arrival
| Time | 2026-04-30 14:55 |
|---|---|
| Airport | Congonhas–Deputado Freitas Nobre Airport (SBSP) |
| Time | Latitude | Longitude | Altitude | Speed | Heading |
|---|---|---|---|---|---|
| 2026-04-30 13:14 | -29.99117 | -51.17348 | 21 ft | 0 kts | 1° |
| 2026-04-30 13:29 | -29.99134 | -51.17348 | 22 ft | 4 kts | 352° |
| 2026-04-30 13:30 | -29.99183 | -51.17290 | 20 ft | 2 kts | 271° |
| 2026-04-30 13:31 | -29.99183 | -51.17287 | 20 ft | 0 kts | 271° |
| 2026-04-30 13:34 | -29.99232 | -51.17393 | 21 ft | 5 kts | 181° |
| 2026-04-30 13:35 | -29.99256 | -51.17417 | 20 ft | 5 kts | 244° |
| 2026-04-30 13:35 | -29.99264 | -51.17557 | 20 ft | 14 kts | 269° |
| 2026-04-30 13:36 | -29.99283 | -51.17795 | 20 ft | 15 kts | 274° |
| 2026-04-30 13:36 | -29.99282 | -51.17921 | 20 ft | 16 kts | 270° |
| 2026-04-30 13:36 | -29.99335 | -51.18147 | 21 ft | 3 kts | 248° |
| 2026-04-30 13:37 | -29.99336 | -51.18150 | 20 ft | 2 kts | 248° |
| 2026-04-30 13:37 | -29.99393 | -51.18245 | 22 ft | 8 kts | 189° |
| 2026-04-30 13:38 | -29.99443 | -51.18183 | 21 ft | 0 kts | 88° |
| 2026-04-30 13:38 | -29.99443 | -51.18140 | 22 ft | 31 kts | 92° |
| 2026-04-30 13:38 | -29.99471 | -51.16417 | 59 ft | 167 kts | 90° |
| 2026-04-30 13:39 | -29.99537 | -51.13752 | 1300 ft | 182 kts | 89° |
| 2026-04-30 13:39 | -29.99550 | -51.10584 | 2419 ft | 211 kts | 93° |
| 2026-04-30 13:40 | -29.99673 | -51.08849 | 3014 ft | 224 kts | 96° |
| 2026-04-30 13:40 | -29.99837 | -51.06972 | 3559 ft | 247 kts | 93° |
| 2026-04-30 13:40 | -29.99881 | -51.04930 | 4226 ft | 264 kts | 90° |
| 2026-04-30 13:40 | -29.99871 | -51.02775 | 5186 ft | 271 kts | 89° |
| 2026-04-30 13:41 | -29.99854 | -51.00576 | 6178 ft | 275 kts | 89° |
| 2026-04-30 13:41 | -29.99850 | -50.98372 | 7129 ft | 280 kts | 90° |
| 2026-04-30 13:41 | -29.99864 | -50.96092 | 8062 ft | 286 kts | 90° |
| 2026-04-30 13:41 | -29.99710 | -50.93790 | 8918 ft | 292 kts | 73° |
| 2026-04-30 13:42 | -29.98701 | -50.91749 | 9663 ft | 298 kts | 45° |
| 2026-04-30 13:42 | -29.96973 | -50.90512 | 9932 ft | 298 kts | 15° |
| 2026-04-30 13:42 | -29.92719 | -50.89485 | 10015 ft | 329 kts | 24° |
| 2026-04-30 13:43 | -29.90722 | -50.88162 | 10032 ft | 332 kts | 31° |
| 2026-04-30 13:43 | -29.88780 | -50.86729 | 10027 ft | 332 kts | 33° |
| 2026-04-30 13:43 | -29.86876 | -50.85267 | 10014 ft | 332 kts | 33° |
| 2026-04-30 13:43 | -29.84958 | -50.83772 | 10018 ft | 332 kts | 33° |
| 2026-04-30 13:44 | -29.83042 | -50.82276 | 10030 ft | 333 kts | 33° |
| 2026-04-30 13:44 | -29.81118 | -50.80779 | 10023 ft | 332 kts | 33° |
| 2026-04-30 13:44 | -29.79222 | -50.79314 | 10019 ft | 333 kts | 33° |
| 2026-04-30 13:44 | -29.77267 | -50.77805 | 10569 ft | 338 kts | 33° |
| 2026-04-30 13:45 | -29.73324 | -50.74755 | 12336 ft | 346 kts | 33° |
| 2026-04-30 13:45 | -29.71330 | -50.73214 | 13115 ft | 351 kts | 33° |
| 2026-04-30 13:45 | -29.69259 | -50.71614 | 13861 ft | 357 kts | 33° |
| 2026-04-30 13:46 | -29.67207 | -50.70029 | 14576 ft | 362 kts | 33° |
| 2026-04-30 13:46 | -29.65098 | -50.68401 | 15267 ft | 367 kts | 32° |
| 2026-04-30 13:46 | -29.62960 | -50.66752 | 15930 ft | 372 kts | 32° |
| 2026-04-30 13:46 | -29.60791 | -50.65080 | 16575 ft | 377 kts | 32° |
| 2026-04-30 13:47 | -29.58596 | -50.63389 | 17201 ft | 382 kts | 32° |
| 2026-04-30 13:47 | -29.56365 | -50.61673 | 17824 ft | 387 kts | 32° |
| 2026-04-30 13:47 | -29.54111 | -50.59940 | 18429 ft | 392 kts | 32° |
| 2026-04-30 13:47 | -29.51850 | -50.58203 | 19020 ft | 396 kts | 32° |
| 2026-04-30 13:48 | -29.49542 | -50.56432 | 19632 ft | 400 kts | 32° |
| 2026-04-30 13:48 | -29.47292 | -50.54528 | 20242 ft | 405 kts | 39° |
| 2026-04-30 13:48 | -29.45150 | -50.52391 | 20830 ft | 409 kts | 40° |
| 2026-04-30 13:48 | -29.43016 | -50.50268 | 21398 ft | 412 kts | 40° |
| 2026-04-30 13:49 | -29.40833 | -50.48104 | 21957 ft | 415 kts | 39° |
| 2026-04-30 13:49 | -29.38630 | -50.45927 | 22505 ft | 419 kts | 39° |
| 2026-04-30 13:49 | -29.36412 | -50.43734 | 23033 ft | 422 kts | 39° |
| 2026-04-30 13:49 | -29.34174 | -50.41518 | 23570 ft | 425 kts | 40° |
| 2026-04-30 13:50 | -29.31928 | -50.39290 | 24087 ft | 428 kts | 40° |
| 2026-04-30 13:50 | -29.27392 | -50.34840 | 25037 ft | 434 kts | 38° |
| 2026-04-30 13:50 | -29.25012 | -50.32688 | 25501 ft | 437 kts | 36° |
| 2026-04-30 13:51 | -29.22569 | -50.30604 | 25961 ft | 439 kts | 34° |
| 2026-04-30 13:51 | -29.20079 | -50.28542 | 26414 ft | 441 kts | 34° |
| 2026-04-30 13:51 | -29.17604 | -50.26503 | 26863 ft | 444 kts | 34° |
| 2026-04-30 13:51 | -29.15085 | -50.24412 | 27296 ft | 446 kts | 34° |
| 2026-04-30 13:52 | -29.12567 | -50.22295 | 27717 ft | 448 kts | 35° |
| 2026-04-30 13:52 | -29.10066 | -50.20173 | 28077 ft | 450 kts | 35° |
| 2026-04-30 13:52 | -29.07544 | -50.18022 | 28472 ft | 455 kts | 34° |
| 2026-04-30 13:52 | -29.05000 | -50.15845 | 28931 ft | 458 kts | 34° |
| 2026-04-30 13:53 | -29.02476 | -50.13685 | 29357 ft | 459 kts | 34° |
| 2026-04-30 13:53 | -28.99909 | -50.11500 | 29729 ft | 462 kts | 34° |
| 2026-04-30 13:53 | -28.97326 | -50.09297 | 30137 ft | 465 kts | 34° |
| 2026-04-30 13:53 | -28.94718 | -50.07081 | 30576 ft | 468 kts | 34° |
| 2026-04-30 13:54 | -28.92094 | -50.04855 | 30995 ft | 470 kts | 34° |
| 2026-04-30 13:54 | -28.89466 | -50.02632 | 31349 ft | 471 kts | 34° |
| 2026-04-30 13:54 | -28.86825 | -50.00404 | 31687 ft | 473 kts | 34° |
| 2026-04-30 13:54 | -28.84167 | -49.98158 | 32056 ft | 473 kts | 34° |
| 2026-04-30 13:55 | -28.81525 | -49.95920 | 32508 ft | 472 kts | 34° |
| 2026-04-30 13:55 | -28.78883 | -49.93680 | 32943 ft | 471 kts | 33° |
| 2026-04-30 13:55 | -28.76284 | -49.91480 | 33414 ft | 470 kts | 33° |
| 2026-04-30 13:55 | -28.73654 | -49.89257 | 33819 ft | 469 kts | 33° |
| 2026-04-30 13:56 | -28.71025 | -49.87037 | 34285 ft | 467 kts | 33° |
| 2026-04-30 13:56 | -28.68413 | -49.84835 | 34683 ft | 466 kts | 33° |
| 2026-04-30 13:56 | -28.65803 | -49.82635 | 35039 ft | 466 kts | 33° |
| 2026-04-30 13:56 | -28.63197 | -49.80436 | 35383 ft | 465 kts | 33° |
| 2026-04-30 13:57 | -28.60621 | -49.78265 | 35696 ft | 465 kts | 33° |
| 2026-04-30 13:57 | -28.58016 | -49.76074 | 36015 ft | 465 kts | 33° |
| 2026-04-30 13:57 | -28.55412 | -49.73881 | 36327 ft | 465 kts | 32° |
| 2026-04-30 13:57 | -28.52811 | -49.71692 | 36622 ft | 465 kts | 32° |
| 2026-04-30 13:58 | -28.50205 | -49.69501 | 36919 ft | 464 kts | 32° |
| 2026-04-30 13:58 | -28.45104 | -49.65213 | 37167 ft | 456 kts | 32° |
| 2026-04-30 13:59 | -28.40018 | -49.60943 | 37164 ft | 452 kts | 32° |
| 2026-04-30 13:59 | -28.34971 | -49.56725 | 37169 ft | 452 kts | 32° |
| 2026-04-30 14:00 | -28.29896 | -49.52485 | 37162 ft | 452 kts | 32° |
| 2026-04-30 14:00 | -28.22330 | -49.46164 | 37158 ft | 452 kts | 32° |
| 2026-04-30 14:01 | -28.17253 | -49.41933 | 37158 ft | 452 kts | 32° |
| 2026-04-30 14:01 | -28.12184 | -49.37701 | 37153 ft | 451 kts | 32° |
| 2026-04-30 14:02 | -28.07125 | -49.33476 | 37151 ft | 451 kts | 32° |
| 2026-04-30 14:02 | -28.02118 | -49.29225 | 37147 ft | 451 kts | 33° |
| 2026-04-30 14:03 | -27.97108 | -49.24938 | 37143 ft | 451 kts | 33° |
| 2026-04-30 14:03 | -27.92090 | -49.20661 | 37144 ft | 451 kts | 32° |
| 2026-04-30 14:04 | -27.87055 | -49.16404 | 37141 ft | 451 kts | 32° |
| 2026-04-30 14:04 | -27.81974 | -49.12285 | 37141 ft | 450 kts | 31° |
| 2026-04-30 14:05 | -27.76829 | -49.08208 | 37143 ft | 450 kts | 31° |
| 2026-04-30 14:05 | -27.71704 | -49.04131 | 37145 ft | 450 kts | 31° |
| 2026-04-30 14:06 | -27.64082 | -48.97941 | 37140 ft | 451 kts | 32° |
| 2026-04-30 14:07 | -27.56509 | -48.91676 | 37140 ft | 451 kts | 32° |
| 2026-04-30 14:08 | -27.48903 | -48.85403 | 37138 ft | 451 kts | 32° |
| 2026-04-30 14:08 | -27.41306 | -48.79185 | 37139 ft | 451 kts | 32° |
| 2026-04-30 14:09 | -27.36224 | -48.75026 | 37119 ft | 451 kts | 31° |
| 2026-04-30 14:10 | -27.28535 | -48.68757 | 37142 ft | 455 kts | 32° |
| 2026-04-30 14:10 | -27.23422 | -48.64535 | 37173 ft | 455 kts | 32° |
| 2026-04-30 14:11 | -27.18322 | -48.60235 | 37165 ft | 458 kts | 33° |
| 2026-04-30 14:11 | -27.13258 | -48.56026 | 37143 ft | 454 kts | 32° |
| 2026-04-30 14:12 | -27.08142 | -48.51918 | 37148 ft | 450 kts | 31° |
| 2026-04-30 14:12 | -27.03031 | -48.47843 | 37147 ft | 450 kts | 31° |
| 2026-04-30 14:13 | -26.97934 | -48.43727 | 37142 ft | 451 kts | 31° |
| 2026-04-30 14:13 | -26.92867 | -48.39632 | 37141 ft | 452 kts | 31° |
| 2026-04-30 14:14 | -26.87753 | -48.35513 | 37142 ft | 452 kts | 31° |
| 2026-04-30 14:14 | -26.82639 | -48.31403 | 37145 ft | 452 kts | 31° |
| 2026-04-30 14:15 | -26.77526 | -48.27300 | 37145 ft | 452 kts | 31° |
| 2026-04-30 14:15 | -26.72403 | -48.23198 | 37146 ft | 452 kts | 31° |
| 2026-04-30 14:16 | -26.67325 | -48.19122 | 37149 ft | 452 kts | 31° |
| 2026-04-30 14:16 | -26.62227 | -48.15010 | 37148 ft | 451 kts | 31° |
| 2026-04-30 14:17 | -26.57125 | -48.10898 | 37148 ft | 451 kts | 31° |
| 2026-04-30 14:17 | -26.52028 | -48.06799 | 37148 ft | 451 kts | 31° |
| 2026-04-30 14:18 | -26.46961 | -48.02732 | 37144 ft | 452 kts | 31° |
| 2026-04-30 14:18 | -26.39294 | -47.96601 | 37148 ft | 451 kts | 31° |
| 2026-04-30 14:19 | -26.32503 | -47.91177 | 37145 ft | 451 kts | 31° |
| 2026-04-30 14:20 | -26.26584 | -47.86438 | 37144 ft | 450 kts | 31° |
| 2026-04-30 14:20 | -26.19757 | -47.80996 | 37142 ft | 450 kts | 31° |
| 2026-04-30 14:21 | -26.14686 | -47.76951 | 37147 ft | 450 kts | 31° |
| 2026-04-30 14:22 | -26.07032 | -47.70860 | 37151 ft | 450 kts | 31° |
| 2026-04-30 14:22 | -25.99406 | -47.64818 | 37160 ft | 450 kts | 31° |
| 2026-04-30 14:23 | -25.89191 | -47.56722 | 37164 ft | 450 kts | 31° |
| 2026-04-30 14:24 | -25.81572 | -47.50692 | 37159 ft | 450 kts | 31° |
| 2026-04-30 14:25 | -25.71356 | -47.42622 | 37166 ft | 449 kts | 31° |
| 2026-04-30 14:26 | -25.63724 | -47.36613 | 37169 ft | 450 kts | 31° |
| 2026-04-30 14:27 | -25.56075 | -47.30584 | 37164 ft | 449 kts | 31° |
| 2026-04-30 14:27 | -25.51044 | -47.26636 | 37156 ft | 448 kts | 31° |
| 2026-04-30 14:28 | -25.43400 | -47.20635 | 37157 ft | 448 kts | 31° |
| 2026-04-30 14:28 | -25.38317 | -47.16660 | 37127 ft | 448 kts | 31° |
| 2026-04-30 14:29 | -25.28136 | -47.08681 | 37119 ft | 449 kts | 31° |
| 2026-04-30 14:30 | -25.20568 | -47.02765 | 34916 ft | 445 kts | 31° |
| 2026-04-30 14:31 | -25.15531 | -46.98839 | 33583 ft | 441 kts | 31° |
| 2026-04-30 14:31 | -25.10438 | -46.95158 | 32621 ft | 432 kts | 27° |
| 2026-04-30 14:31 | -25.07890 | -46.93502 | 32158 ft | 428 kts | 26° |
| 2026-04-30 14:32 | -25.02763 | -46.90264 | 31227 ft | 421 kts | 26° |
| 2026-04-30 14:32 | -25.00238 | -46.88656 | 30771 ft | 418 kts | 26° |
| 2026-04-30 14:32 | -24.97730 | -46.87038 | 30317 ft | 415 kts | 26° |
| 2026-04-30 14:33 | -24.95250 | -46.85418 | 29886 ft | 412 kts | 27° |
| 2026-04-30 14:33 | -24.90396 | -46.82225 | 29029 ft | 406 kts | 27° |
| 2026-04-30 14:33 | -24.87976 | -46.80637 | 28615 ft | 403 kts | 27° |
| 2026-04-30 14:34 | -24.85568 | -46.79058 | 28196 ft | 401 kts | 27° |
| 2026-04-30 14:34 | -24.83169 | -46.77485 | 27758 ft | 398 kts | 27° |
| 2026-04-30 14:34 | -24.80803 | -46.75935 | 27326 ft | 395 kts | 27° |
| 2026-04-30 14:34 | -24.78435 | -46.74389 | 26889 ft | 393 kts | 27° |
| 2026-04-30 14:35 | -24.73777 | -46.71359 | 26014 ft | 387 kts | 27° |
| 2026-04-30 14:35 | -24.71461 | -46.69853 | 25567 ft | 385 kts | 27° |
| 2026-04-30 14:35 | -24.69154 | -46.68355 | 25114 ft | 383 kts | 27° |
| 2026-04-30 14:36 | -24.66897 | -46.66888 | 24660 ft | 380 kts | 27° |
| 2026-04-30 14:36 | -24.64619 | -46.65402 | 24207 ft | 378 kts | 27° |
| 2026-04-30 14:36 | -24.62353 | -46.63954 | 23756 ft | 374 kts | 24° |
| 2026-04-30 14:36 | -24.59951 | -46.62947 | 23309 ft | 366 kts | 11° |
| 2026-04-30 14:37 | -24.57494 | -46.62546 | 22800 ft | 359 kts | 358° |
| 2026-04-30 14:37 | -24.55002 | -46.62543 | 22278 ft | 355 kts | 356° |
| 2026-04-30 14:37 | -24.52527 | -46.62549 | 21770 ft | 353 kts | 357° |
| 2026-04-30 14:37 | -24.50073 | -46.62548 | 21278 ft | 351 kts | 357° |
| 2026-04-30 14:38 | -24.47636 | -46.62549 | 20789 ft | 349 kts | 357° |
| 2026-04-30 14:38 | -24.45241 | -46.62551 | 20306 ft | 346 kts | 357° |
| 2026-04-30 14:38 | -24.42841 | -46.62553 | 19834 ft | 345 kts | 358° |
| 2026-04-30 14:38 | -24.40435 | -46.62553 | 19423 ft | 343 kts | 358° |
| 2026-04-30 14:39 | -24.38052 | -46.62553 | 19017 ft | 341 kts | 358° |
| 2026-04-30 14:39 | -24.35710 | -46.62552 | 18621 ft | 339 kts | 358° |
| 2026-04-30 14:39 | -24.33352 | -46.62552 | 18223 ft | 337 kts | 358° |
| 2026-04-30 14:40 | -24.28673 | -46.62558 | 17441 ft | 333 kts | 358° |
| 2026-04-30 14:40 | -24.26386 | -46.62564 | 17066 ft | 332 kts | 358° |
| 2026-04-30 14:40 | -24.24078 | -46.62568 | 16691 ft | 330 kts | 358° |
| 2026-04-30 14:40 | -24.21787 | -46.62573 | 16326 ft | 328 kts | 358° |
| 2026-04-30 14:41 | -24.19506 | -46.62575 | 15968 ft | 326 kts | 358° |
| 2026-04-30 14:41 | -24.17240 | -46.62573 | 15602 ft | 324 kts | 358° |
| 2026-04-30 14:41 | -24.14987 | -46.62572 | 15241 ft | 323 kts | 358° |
| 2026-04-30 14:41 | -24.12742 | -46.62573 | 14883 ft | 321 kts | 358° |
| 2026-04-30 14:42 | -24.10512 | -46.62574 | 14529 ft | 320 kts | 358° |
| 2026-04-30 14:42 | -24.08320 | -46.62573 | 14192 ft | 318 kts | 358° |
| 2026-04-30 14:42 | -24.06111 | -46.62573 | 13853 ft | 316 kts | 358° |
| 2026-04-30 14:42 | -24.03907 | -46.62574 | 13507 ft | 315 kts | 358° |
| 2026-04-30 14:43 | -24.01712 | -46.62576 | 13152 ft | 313 kts | 358° |
| 2026-04-30 14:43 | -23.99561 | -46.62579 | 12804 ft | 312 kts | 358° |
| 2026-04-30 14:43 | -23.97394 | -46.62581 | 12447 ft | 310 kts | 358° |
| 2026-04-30 14:43 | -23.95239 | -46.62583 | 12080 ft | 308 kts | 358° |
| 2026-04-30 14:44 | -23.93096 | -46.62585 | 11712 ft | 307 kts | 358° |
| 2026-04-30 14:44 | -23.90965 | -46.62585 | 11347 ft | 305 kts | 358° |
| 2026-04-30 14:44 | -23.88847 | -46.62584 | 10985 ft | 303 kts | 359° |
| 2026-04-30 14:44 | -23.86772 | -46.62681 | 10610 ft | 300 kts | 349° |
| 2026-04-30 14:45 | -23.84780 | -46.63313 | 10247 ft | 296 kts | 335° |
| 2026-04-30 14:45 | -23.83009 | -46.64421 | 9873 ft | 293 kts | 326° |
| 2026-04-30 14:45 | -23.81292 | -46.65622 | 9481 ft | 292 kts | 326° |
| 2026-04-30 14:45 | -23.79590 | -46.66808 | 9194 ft | 289 kts | 326° |
| 2026-04-30 14:46 | -23.77884 | -46.67992 | 9172 ft | 291 kts | 327° |
| 2026-04-30 14:46 | -23.76172 | -46.69177 | 9184 ft | 291 kts | 327° |
| 2026-04-30 14:46 | -23.74457 | -46.70363 | 9183 ft | 291 kts | 327° |
| 2026-04-30 14:46 | -23.72768 | -46.71533 | 9184 ft | 291 kts | 326° |
| 2026-04-30 14:47 | -23.71049 | -46.72726 | 9171 ft | 291 kts | 327° |
| 2026-04-30 14:47 | -23.69347 | -46.73904 | 8806 ft | 288 kts | 327° |
| 2026-04-30 14:47 | -23.67656 | -46.75076 | 8422 ft | 287 kts | 327° |
| 2026-04-30 14:47 | -23.65976 | -46.76242 | 8085 ft | 283 kts | 327° |
| 2026-04-30 14:48 | -23.64368 | -46.77357 | 7975 ft | 271 kts | 327° |
| 2026-04-30 14:48 | -23.62819 | -46.78431 | 7848 ft | 254 kts | 327° |
| 2026-04-30 14:48 | -23.61374 | -46.79431 | 7724 ft | 237 kts | 327° |
| 2026-04-30 14:48 | -23.60025 | -46.80361 | 7594 ft | 221 kts | 327° |
| 2026-04-30 14:49 | -23.58789 | -46.81207 | 7524 ft | 203 kts | 328° |
| 2026-04-30 14:49 | -23.57490 | -46.81644 | 7406 ft | 189 kts | 356° |
| 2026-04-30 14:49 | -23.56266 | -46.81403 | 7297 ft | 169 kts | 22° |
| 2026-04-30 14:49 | -23.55365 | -46.80712 | 7118 ft | 152 kts | 46° |
| 2026-04-30 14:50 | -23.54226 | -46.78859 | 6471 ft | 145 kts | 57° |
| 2026-04-30 14:50 | -23.53688 | -46.77946 | 6136 ft | 144 kts | 57° |
| 2026-04-30 14:51 | -23.52609 | -46.76112 | 5442 ft | 142 kts | 57° |
| 2026-04-30 14:51 | -23.52105 | -46.75183 | 5080 ft | 143 kts | 68° |
| 2026-04-30 14:51 | -23.52266 | -46.73130 | 4778 ft | 142 kts | 121° |
| 2026-04-30 14:52 | -23.52943 | -46.72367 | 4631 ft | 141 kts | 147° |
| 2026-04-30 14:52 | -23.54593 | -46.71230 | 4295 ft | 139 kts | 149° |
| 2026-04-30 14:52 | -23.55413 | -46.70663 | 4114 ft | 139 kts | 148° |
| 2026-04-30 14:53 | -23.57040 | -46.69539 | 3768 ft | 139 kts | 147° |
| 2026-04-30 14:53 | -23.57852 | -46.68978 | 3576 ft | 138 kts | 147° |
| 2026-04-30 14:54 | -23.59486 | -46.67848 | 3223 ft | 139 kts | 147° |
| 2026-04-30 14:54 | -23.61112 | -46.66723 | 2871 ft | 138 kts | 147° |
| 2026-04-30 14:55 | -23.62696 | -46.65628 | 2608 ft | 124 kts | 147° |
| 2026-04-30 14:55 | -23.63016 | -46.65401 | 2610 ft | 8 kts | 146° |
| 2026-04-30 14:55 | -23.63124 | -46.65373 | 2609 ft | 10 kts | 196° |
| 2026-04-30 14:56 | -23.63171 | -46.65410 | 2604 ft | 0 kts | 252° |
| 2026-04-30 14:56 | -23.63141 | -46.65461 | 2602 ft | 14 kts | 324° |
| 2026-04-30 14:57 | -23.63054 | -46.65516 | 2602 ft | 15 kts | 346° |
| 2026-04-30 14:57 | -23.62872 | -46.65612 | 2603 ft | 16 kts | 328° |
| 2026-04-30 14:58 | -23.62706 | -46.65727 | 2602 ft | 12 kts | 327° |
| 2026-04-30 14:58 | -23.62639 | -46.65775 | 2602 ft | 11 kts | 328° |
| 2026-04-30 14:58 | -23.62472 | -46.65888 | 2601 ft | 14 kts | 328° |
| 2026-04-30 14:59 | -23.62462 | -46.65955 | 2600 ft | 5 kts | 236° |
| 2026-04-30 15:00 | -23.62481 | -46.65988 | 2600 ft | 0 kts | 237° |